Terminal Aerodrome Forecast
Issued by NWS

Home | Current Version | Previous Version | Text Only | Print | Product List | Glossary On
Versions: 1 2 3 4 5 6 7 8 9 10 11 12 13 14 15 16 17 18 19 20 21 22 23 24 25
733
FTUS43 KDLH 161403 AAA
TAFBRD
TAF AMD
KBRD 161403Z 1614/1712 13008KT P6SM VCSH OVC023
      TEMPO 1614/1616 3SM -SHRA BR OVC018
     FM161600 13009KT 5SM -SHRA BR OVC015
     FM161800 12008KT 5SM -SHRA VCTS OVC015CB
     FM170000 08006KT 3SM -SHRA BR VCTS OVC025CB
     FM170400 06005KT 2SM SHRA BR VCTS OVC008CB=

USA.gov is the U.S. government's official web portal to all federal, state and local government web resources and services.